createdAt,value
2023-11-23T00:00:21.783Z,101922.78
2023-11-23T00:05:45.451Z,101909.91
2023-11-23T00:10:49.144Z,101915.16
2023-11-23T00:15:54.250Z,101892.03
2023-11-23T00:20:58.944Z,101890.19
2023-11-23T00:26:04.618Z,101870.47
2023-11-23T00:31:09.817Z,101852.53
2023-11-23T00:36:14.950Z,101839.63
2023-11-23T00:41:19.196Z,101832.78
2023-11-23T00:46:24.241Z,101824.22
2023-11-23T00:51:28.530Z,101801.97
2023-11-23T00:56:32.150Z,101780.50
2023-11-23T01:01:37.395Z,101763.31
2023-11-23T01:06:42.915Z,101751.28
2023-11-23T01:11:46.586Z,101723.03
2023-11-23T01:16:51.772Z,101725.59
2023-11-23T01:21:55.681Z,101711.84
2023-11-23T01:26:59.466Z,101713.66
2023-11-23T01:32:05.105Z,101674.94
2023-11-23T01:37:09.379Z,101666.31
2023-11-23T01:42:13.001Z,101652.59
2023-11-23T01:47:18.124Z,101650.03
2023-11-23T01:52:21.877Z,101648.31
2023-11-23T01:57:26.767Z,101623.38
2023-11-23T02:02:32.402Z,101625.09
2023-11-23T02:07:36.185Z,101624.25
2023-11-23T02:12:40.613Z,101607.88
2023-11-23T02:17:45.806Z,101605.31
2023-11-23T02:22:49.897Z,101607.03
2023-11-23T02:27:55.346Z,101607.03
2023-11-23T02:32:58.988Z,101594.91
2023-11-23T02:38:02.902Z,101576.81
2023-11-23T02:43:09.125Z,101567.31
2023-11-23T02:48:12.787Z,101544.94
2023-11-23T02:53:29.212Z,101549.22
2023-11-23T02:58:34.916Z,101533.63
2023-11-23T03:03:39.552Z,101514.72
2023-11-23T03:08:43.366Z,101512.22
2023-11-23T03:13:48.614Z,101502.63
2023-11-23T03:18:52.509Z,101504.34
2023-11-23T03:23:57.288Z,101506.03
2023-11-23T03:29:02.571Z,101481.94
2023-11-23T03:34:07.109Z,101472.31
2023-11-23T03:39:11.275Z,101470.69
2023-11-23T03:44:16.940Z,101461.97
2023-11-23T03:49:20.848Z,101443.84
2023-11-23T03:54:24.771Z,101440.34
2023-11-23T03:59:30.330Z,101437.72
2023-11-23T04:04:35.856Z,101440.25
2023-11-23T04:09:39.496Z,101431.66
2023-11-23T04:14:44.676Z,101421.19
2023-11-23T04:19:49.648Z,101423.72
2023-11-23T04:24:53.413Z,101417.53
2023-11-23T04:29:58.506Z,101398.59
2023-11-23T04:35:02.302Z,101389.06
2023-11-23T04:40:07.636Z,101397.41
2023-11-23T04:45:13.323Z,101400.88
2023-11-23T04:50:20.139Z,101398.25
2023-11-23T04:55:25.282Z,101388.72
2023-11-23T05:00:31.541Z,101393.03
2023-11-23T05:05:35.244Z,101390.25
2023-11-23T05:10:38.970Z,101376.53
2023-11-23T05:15:44.116Z,101371.41
2023-11-23T05:20:47.912Z,101376.56
2023-11-23T05:25:51.706Z,101363.53
2023-11-23T05:30:56.762Z,101348.59
2023-11-23T05:36:00.520Z,101340.94
2023-11-23T05:41:04.324Z,101328.56
2023-11-23T05:46:12.442Z,101309.75
2023-11-23T05:51:17.656Z,101300.06
2023-11-23T05:56:22.049Z,101293.25
2023-11-23T06:01:27.103Z,101290.72
2023-11-23T06:06:31.684Z,101278.50
2023-11-23T06:11:35.065Z,101285.41
2023-11-23T06:16:40.128Z,101305.09
2023-11-23T06:21:43.784Z,101293.94
2023-11-23T06:26:47.485Z,101285.13
2023-11-23T06:31:52.594Z,101297.06
2023-11-23T06:36:56.238Z,101279.69
2023-11-23T06:42:00.406Z,101253.81
2023-11-23T06:47:06.250Z,101261.41
2023-11-23T06:52:09.943Z,101240.56
2023-11-23T06:57:14.702Z,101222.28
2023-11-23T07:02:19.769Z,101215.91
2023-11-23T07:07:23.433Z,101200.16
2023-11-23T07:12:27.777Z,101200.66
2023-11-23T07:17:33.087Z,101189.38
2023-11-23T07:22:36.928Z,101179.91
2023-11-23T07:27:40.737Z,101179.81
2023-11-23T07:32:45.907Z,101179.50
2023-11-23T07:37:49.925Z,101175.75
2023-11-23T07:42:53.737Z,101172.69
2023-11-23T07:47:58.774Z,101140.38
2023-11-23T07:53:02.766Z,101132.44
2023-11-23T07:58:06.600Z,101124.22
2023-11-23T08:03:12.090Z,101112.78
2023-11-23T08:08:15.784Z,101105.59
2023-11-23T08:13:21.516Z,101092.34
2023-11-23T08:18:36.501Z,101096.03
2023-11-23T08:23:46.897Z,101074.19
2023-11-23T08:28:50.735Z,101078.63
2023-11-23T08:33:55.819Z,101069.66
2023-11-23T08:38:59.539Z,101071.19
2023-11-23T08:44:05.572Z,101071.13
2023-11-23T08:49:11.828Z,101069.94
2023-11-23T08:54:15.713Z,101057.59
2023-11-23T08:59:19.467Z,101039.53
2023-11-23T09:04:30.571Z,101041.78
2023-11-23T09:09:37.324Z,101036.34
2023-11-23T09:14:48.533Z,101029.09
2023-11-23T09:19:54.973Z,101025.56
2023-11-23T09:24:58.688Z,101022.06
2023-11-23T09:30:04.725Z,101003.41
2023-11-23T09:35:11.808Z,100986.03
2023-11-23T09:40:20.326Z,100983.63
2023-11-23T09:45:26.725Z,100961.75
2023-11-23T09:50:35.663Z,100947.03
2023-11-23T09:55:42.510Z,100947.75
2023-11-23T10:00:46.518Z,100913.19
2023-11-23T10:05:52.381Z,100898.94
2023-11-23T10:10:56.109Z,100896.50
2023-11-23T10:15:59.824Z,100907.72
2023-11-23T10:21:05.319Z,100902.19
2023-11-23T10:26:10.328Z,100879.22
2023-11-23T10:31:14.319Z,100876.13
2023-11-23T10:36:22.321Z,100876.28
2023-11-23T10:41:26.169Z,100843.13
2023-11-23T10:46:30.315Z,100849.13
2023-11-23T10:51:35.870Z,100824.34
2023-11-23T10:56:41.903Z,100811.91
2023-11-23T11:01:46.704Z,100806.41
2023-11-23T11:06:55.572Z,100804.59
2023-11-23T11:12:02.166Z,100830.06
2023-11-23T11:17:07.531Z,100799.22
2023-11-23T11:22:15.159Z,100798.69
2023-11-23T11:27:21.534Z,100764.69
2023-11-23T11:32:25.266Z,100752.69
2023-11-23T11:37:32.261Z,100759.31
2023-11-23T11:42:39.107Z,100741.88
2023-11-23T11:47:43.301Z,100737.81
2023-11-23T11:52:49.093Z,100734.94
2023-11-23T11:57:53.106Z,100727.38
2023-11-23T12:02:56.840Z,100712.59
2023-11-23T12:08:02.099Z,100703.81
2023-11-23T12:13:05.779Z,100687.38
2023-11-23T12:18:09.524Z,100684.94
2023-11-23T12:23:14.899Z,100670.88
2023-11-23T12:28:21.836Z,100694.09
2023-11-23T12:33:25.558Z,100676.47
2023-11-23T12:38:30.624Z,100664.09
2023-11-23T12:43:35.228Z,100660.84
2023-11-23T12:48:39.009Z,100651.88
2023-11-23T12:53:44.113Z,100643.16
2023-11-23T12:58:48.727Z,100624.06
2023-11-23T13:03:52.723Z,100604.13
2023-11-23T13:08:57.832Z,100595.28
2023-11-23T13:14:01.525Z,100590.00
2023-11-23T13:19:16.973Z,100579.38
2023-11-23T13:24:31.955Z,100572.59
2023-11-23T13:29:36.570Z,100561.91
2023-11-23T13:34:40.315Z,100556.56
2023-11-23T13:39:45.319Z,100520.50
2023-11-23T13:44:49.237Z,100522.03
2023-11-23T13:49:53.066Z,100516.34
2023-11-23T13:54:59.237Z,100505.97
2023-11-23T14:00:12.803Z,100496.63
2023-11-23T14:05:17.117Z,100486.63
2023-11-23T14:10:22.763Z,100475.75
2023-11-23T14:15:27.135Z,100466.84
2023-11-23T14:20:30.826Z,100470.97
2023-11-23T14:25:35.946Z,100457.28
2023-11-23T14:30:39.717Z,100454.28
2023-11-23T14:35:43.673Z,100444.22
2023-11-23T14:40:49.204Z,100420.16
2023-11-23T14:45:52.973Z,100423.88
2023-11-23T14:50:56.687Z,100417.78
2023-11-23T14:56:01.941Z,100402.44
2023-11-23T15:01:05.722Z,100386.63
2023-11-23T15:06:10.023Z,100373.81
2023-11-23T15:11:16.173Z,100352.91
2023-11-23T21:37:50.115Z,99874.53
2023-11-23T21:42:54.127Z,99864.59
2023-11-23T21:47:57.877Z,99854.19
2023-11-23T21:53:03.042Z,99864.00
2023-11-23T21:58:07.071Z,99871.81
2023-11-23T22:03:10.904Z,99868.47
2023-11-23T22:08:16.152Z,99872.91
2023-11-23T22:13:19.868Z,99843.25
2023-11-23T22:18:26.497Z,99862.13
2023-11-23T22:23:32.989Z,99880.03
2023-11-23T22:28:37.220Z,99886.00
2023-11-23T22:33:43.341Z,99885.81
2023-11-23T22:38:51.822Z,99893.69
2023-11-23T22:43:56.783Z,99885.56
2023-11-23T22:49:00.595Z,99860.63
2023-11-23T22:54:05.813Z,99864.00
2023-11-23T22:59:09.603Z,99867.13
2023-11-23T23:04:13.392Z,99856.72
2023-11-23T23:09:20.039Z,99865.78
2023-11-23T23:14:24.994Z,99859.72
2023-11-23T23:19:28.736Z,99856.50
2023-11-23T23:24:34.230Z,99838.16
2023-11-23T23:29:37.834Z,99854.06
2023-11-23T23:34:42.214Z,99850.41
2023-11-23T23:39:48.359Z,99843.28
2023-11-23T23:44:54.432Z,99851.63
2023-11-23T23:49:59.663Z,99852.28
2023-11-23T23:55:07.527Z,99856.50
